Time;durP1;ratioP1;P1;durP2;ratioP2;P2;SDS_P1;SDS_P2;PMS_P1;PMS_P2;Temp;Humidity;BMP_temperature;BMP_pressure;BME280_temperature;BME280_humidity;BME280_pressure;Samples;Min_cycle;Max_cycle;Signal;HPM_P1;HPM_P2
2022/01/15 00:00:16;;;;;;;42.47;27.73;;;;;;;3.81;60.72;102304.84;5031692;28;20099;-60
2022/01/15 00:02:42;;;;;;;41.45;27.33;;;;;;;3.80;60.61;102303.16;5035387;28;20400;-59
2022/01/15 00:05:10;;;;;;;45.05;27.90;;;;;;;3.74;60.31;102291.88;5035102;28;20552;-60
2022/01/15 00:07:38;;;;;;;43.58;27.92;;;;;;;3.74;60.40;102291.03;5034277;28;20045;-67
2022/01/15 00:10:06;;;;;;;46.83;27.92;;;;;;;3.70;60.40;102297.97;5035071;28;20049;-59
2022/01/15 00:12:39;;;;;;;37.10;26.73;;;;;;;3.68;60.29;102291.06;5035338;28;20132;-60
2022/01/15 00:15:11;;;;;;;39.85;27.38;;;;;;;3.72;60.27;102285.84;5035009;28;20053;-61
2022/01/15 00:20:33;;;;;;;47.30;29.60;;;;;;;3.70;60.27;102285.00;5025606;28;20498;-62
2022/01/15 00:23:00;;;;;;;59.78;38.05;;;;;;;3.72;60.50;102285.84;5034737;28;20387;-60
2022/01/15 00:25:29;;;;;;;46.50;29.02;;;;;;;3.72;60.50;102277.19;5033836;28;20045;-68
2022/01/15 00:27:56;;;;;;;46.25;30.10;;;;;;;3.71;60.66;102272.88;5034980;28;20049;-59
2022/01/15 00:30:24;;;;;;;47.00;30.90;;;;;;;3.66;60.86;102270.28;5034687;28;20100;-59
2022/01/15 00:32:53;;;;;;;47.95;31.17;;;;;;;3.66;60.84;102265.09;5034747;28;20045;-60
2022/01/15 00:35:23;;;;;;;45.72;28.35;;;;;;;3.64;61.05;102261.63;5034608;28;20851;-60
2022/01/15 00:37:50;;;;;;;48.33;30.77;;;;;;;3.64;61.10;102250.41;5034359;28;20092;-59
2022/01/15 00:40:19;;;;;;;41.50;28.10;;;;;;;3.62;60.95;102245.22;5034653;28;20073;-60
2022/01/15 00:42:46;;;;;;;42.50;28.75;;;;;;;3.61;60.95;102235.69;5033704;28;20383;-60
2022/01/15 00:45:20;;;;;;;40.47;27.60;;;;;;;3.58;60.86;102240.88;5034656;28;20045;-59
2022/01/15 00:47:47;;;;;;;45.30;29.30;;;;;;;3.58;60.81;102252.16;5033591;28;20056;-60
2022/01/15 00:50:14;;;;;;;43.35;28.10;;;;;;;3.55;61.02;102249.53;5034417;28;20524;-60
2022/01/15 00:52:42;;;;;;;38.03;27.00;;;;;;;3.53;61.10;102247.81;5034592;28;20053;-60
2022/01/15 00:55:11;;;;;;;42.15;27.75;;;;;;;3.52;60.81;102244.38;5034250;28;20053;-60
2022/01/15 00:57:38;;;;;;;41.83;27.60;;;;;;;3.51;60.89;102237.47;5033693;28;20056;-68
2022/01/15 01:00:07;;;;;;;43.38;28.13;;;;;;;3.49;60.89;102230.53;5034154;28;20045;-64
2022/01/15 01:02:34;;;;;;;48.08;29.02;;;;;;;3.53;60.68;102233.13;5034142;28;20049;-71
2022/01/15 01:05:02;;;;;;;43.95;29.15;;;;;;;3.50;60.94;102235.72;5034012;28;20059;-60
2022/01/15 01:07:28;;;;;;;47.35;28.58;;;;;;;3.47;60.96;102234.91;5034182;28;20045;-68
2022/01/15 01:23:23;;;;;;;47.05;28.05;;;;;;;3.43;60.63;102214.13;5033519;28;20045;-71
2022/01/15 01:25:55;;;;;;;44.00;27.67;;;;;;;3.42;60.72;102211.53;5033773;28;20056;-68
2022/01/15 01:31:00;;;;;;;46.95;28.45;;;;;;;3.32;60.97;102205.50;5032411;28;20448;-61
2022/01/15 01:38:34;;;;;;;43.45;28.17;;;;;;;3.35;60.92;102195.13;5033469;28;20041;-59
2022/01/15 01:41:01;;;;;;;41.60;27.02;;;;;;;3.35;60.92;102192.53;5033436;28;20041;-61
2022/01/15 01:46:14;;;;;;;42.83;25.88;;;;;;;3.28;60.91;102185.63;5033243;28;20445;-60
2022/01/15 01:48:41;;;;;;;39.50;26.17;;;;;;;3.24;61.02;102177.00;5032218;28;20069;-65
2022/01/15 01:51:08;;;;;;;43.65;26.67;;;;;;;3.24;61.13;102181.34;5033250;28;20103;-59
2022/01/15 01:53:35;;;;;;;38.38;24.35;;;;;;;3.24;61.02;102177.00;5033150;28;20042;-60
2022/01/15 01:56:03;;;;;;;41.08;25.70;;;;;;;3.22;61.34;102172.69;5033137;28;20053;-60
2022/01/15 01:58:30;;;;;;;41.13;25.13;;;;;;;3.30;61.03;102164.88;5033154;28;20068;-61
2022/01/15 02:00:57;;;;;;;40.75;25.08;;;;;;;3.19;61.11;102173.56;5033408;28;20042;-60
2022/01/15 02:03:24;;;;;;;37.78;25.85;;;;;;;3.20;61.21;102172.69;5032958;28;20049;-60
2022/01/15 02:05:51;;;;;;;43.83;25.77;;;;;;;3.20;61.01;102162.31;5032142;28;20486;-60
2022/01/15 02:08:18;;;;;;;44.17;26.08;;;;;;;3.19;61.13;102162.31;5032712;28;20067;-60
2022/01/15 02:10:45;;;;;;;44.63;26.08;;;;;;;3.22;61.10;102165.75;5032096;28;20563;-60
2022/01/15 02:13:13;;;;;;;40.88;25.63;;;;;;;3.25;61.06;102170.94;5032901;28;20045;-60
2022/01/15 02:15:40;;;;;;;37.80;24.55;;;;;;;3.26;61.08;102169.19;5032586;28;20490;-60
2022/01/15 02:18:07;;;;;;;46.20;24.58;;;;;;;3.29;61.26;102150.16;5033309;28;20045;-60
2022/01/15 02:20:49;;;;;;;38.30;25.98;;;;;;;3.30;61.19;102147.59;5031918;28;20045;-64
2022/01/15 02:23:35;;;;;;;41.28;25.20;;;;;;;3.25;61.39;102139.81;5032465;28;20041;-60
2022/01/15 02:26:07;;;;;;;43.45;26.48;;;;;;;3.22;61.41;102133.75;5032690;28;20103;-60
2022/01/15 02:28:36;;;;;;;41.33;24.45;;;;;;;3.23;61.72;102131.16;5032847;28;20052;-59
2022/01/15 02:31:09;;;;;;;37.17;24.60;;;;;;;3.23;61.47;102122.53;5032322;28;20038;-60
2022/01/15 02:33:38;;;;;;;40.63;25.83;;;;;;;3.22;61.57;102119.06;5033007;28;20446;-70
2022/01/15 02:36:07;;;;;;;41.45;25.58;;;;;;;3.25;61.63;102111.28;5031623;28;20095;-60
2022/01/15 02:38:36;;;;;;;41.00;25.65;;;;;;;3.26;61.69;102112.13;5032445;28;20050;-60
2022/01/15 02:41:03;;;;;;;40.20;24.58;;;;;;;3.25;61.70;102108.69;5032256;28;20045;-59
2022/01/15 02:43:32;;;;;;;43.53;25.48;;;;;;;3.27;61.72;102117.31;5032580;28;20037;-60
2022/01/15 02:49:03;;;;;;;41.75;25.05;;;;;;;3.25;61.83;102118.19;5032255;28;20556;-64
2022/01/15 02:51:32;;;;;;;37.13;22.80;;;;;;;3.21;61.78;102111.28;5031166;28;20072;-60
2022/01/15 02:53:59;;;;;;;42.78;24.85;;;;;;;3.22;61.88;102119.06;5032307;28;20052;-59
2022/01/15 02:56:28;;;;;;;39.58;23.33;;;;;;;3.22;61.76;102113.88;5032115;28;20064;-60
2022/01/15 02:58:55;;;;;;;39.28;23.58;;;;;;;3.23;61.91;102105.22;5032153;28;20091;-60
2022/01/15 03:01:22;;;;;;;38.35;24.20;;;;;;;3.22;62.04;102113.00;5032028;28;20099;-62
2022/01/15 03:03:49;;;;;;;39.95;23.48;;;;;;;3.19;62.13;102113.03;5032298;28;20072;-60
2022/01/15 03:06:18;;;;;;;41.30;25.02;;;;;;;3.17;62.28;102119.94;5032232;28;20053;-59
2022/01/15 03:08:46;;;;;;;39.63;24.25;;;;;;;3.18;62.29;102121.69;5030745;28;20046;-59
2022/01/15 03:11:13;;;;;;;39.83;25.90;;;;;;;3.18;62.32;102119.09;5031941;28;20061;-59
2022/01/15 03:13:41;;;;;;;36.60;24.60;;;;;;;3.19;62.21;102120.81;5031905;28;20483;-61
2022/01/15 03:16:18;;;;;;;42.50;23.50;;;;;;;3.17;62.47;102118.22;5032145;28;20064;-59
2022/01/15 03:18:45;;;;;;;36.80;23.45;;;;;;;3.13;62.49;102115.66;5031976;28;20061;-60
2022/01/15 03:21:12;;;;;;;34.78;23.42;;;;;;;3.14;62.59;102118.22;5031977;28;20049;-59
2022/01/15 03:23:39;;;;;;;41.30;25.52;;;;;;;3.15;62.59;102108.72;5034750;28;20045;-59
2022/01/15 03:26:11;;;;;;;33.53;22.38;;;;;;;3.13;62.67;102111.31;5035964;28;20064;-65
2022/01/15 03:28:39;;;;;;;38.63;23.55;;;;;;;3.15;62.56;102113.91;5036013;28;20060;-60
2022/01/15 03:31:06;;;;;;;37.15;23.38;;;;;;;3.12;62.42;102111.31;5035609;28;20049;-60
2022/01/15 03:33:33;;;;;;;36.97;23.88;;;;;;;3.08;62.74;102113.91;5036142;28;20072;-61
2022/01/15 03:36:05;;;;;;;36.03;23.25;;;;;;;3.09;62.69;102115.66;5035939;28;20486;-60
2022/01/15 03:38:32;;;;;;;39.75;23.02;;;;;;;3.07;62.79;102116.53;5035836;28;20461;-71
2022/01/15 03:40:59;;;;;;;37.28;23.55;;;;;;;3.08;62.57;102108.72;5034731;28;20497;-62
2022/01/15 03:43:25;;;;;;;37.20;23.70;;;;;;;3.10;62.68;102113.94;5035829;28;20397;-60
2022/01/15 03:45:52;;;;;;;40.50;24.10;;;;;;;3.11;62.60;102113.03;5035560;28;20529;-61
2022/01/15 03:48:19;;;;;;;36.70;23.40;;;;;;;3.09;62.82;102118.22;5035604;28;20041;-69
2022/01/15 03:50:45;;;;;;;40.60;23.70;;;;;;;3.10;62.70;102122.56;5035729;28;20486;-61
2022/01/15 03:53:12;;;;;;;39.45;23.52;;;;;;;3.12;62.85;102114.78;5035458;28;20054;-60
2022/01/15 03:55:39;;;;;;;39.03;23.48;;;;;;;3.14;63.02;102110.44;5035562;28;20045;-59
2022/01/15 03:58:05;;;;;;;38.08;22.95;;;;;;;3.13;62.75;102105.28;5034431;28;20049;-60
2022/01/15 04:00:32;;;;;;;38.00;24.17;;;;;;;3.10;62.96;102104.41;5035134;28;20049;-59
2022/01/15 04:02:59;;;;;;;40.17;24.42;;;;;;;3.12;63.18;102108.72;5031968;28;20049;-60
2022/01/15 04:05:26;;;;;;;36.45;23.58;;;;;;;3.07;63.06;102111.34;5031710;28;20049;-59
2022/01/15 04:07:52;;;;;;;34.85;22.15;;;;;;;3.04;63.26;102107.00;5031712;28;20104;-66
2022/01/15 04:10:19;;;;;;;36.72;24.85;;;;;;;3.03;63.13;102105.28;5031484;28;20057;-60
2022/01/15 04:12:46;;;;;;;41.03;23.52;;;;;;;3.02;63.24;102111.38;5030818;28;20053;-61
2022/01/15 04:15:15;;;;;;;35.13;23.65;;;;;;;3.06;63.15;102112.19;5031842;28;20140;-68
2022/01/15 04:17:48;;;;;;;39.45;24.05;;;;;;;3.09;63.10;102110.47;5031824;28;20053;-59
2022/01/15 04:20:21;;;;;;;38.92;24.55;;;;;;;3.15;63.11;102113.91;5032244;28;20049;-59
2022/01/15 04:22:49;;;;;;;43.55;25.70;;;;;;;3.17;63.37;102107.84;5031628;28;20474;-59
2022/01/15 04:25:16;;;;;;;40.17;24.67;;;;;;;3.21;63.15;102114.75;5031592;28;20053;-59
2022/01/15 04:27:44;;;;;;;40.35;24.40;;;;;;;3.20;63.33;102113.03;5030765;28;20042;-59
2022/01/15 04:30:13;;;;;;;39.88;24.20;;;;;;;3.19;63.29;102116.47;5031465;28;20534;-60
2022/01/15 04:32:40;;;;;;;35.10;23.23;;;;;;;3.17;63.47;102113.03;5030667;28;20041;-59
2022/01/15 04:35:08;;;;;;;34.35;22.50;;;;;;;3.16;63.58;102113.03;5031363;28;20119;-61
2022/01/15 04:37:39;;;;;;;40.60;24.48;;;;;;;3.21;63.36;102121.66;5031073;28;20050;-60
2022/01/15 04:40:08;;;;;;;41.38;24.55;;;;;;;3.12;63.57;102117.38;5031585;28;20099;-59
2022/01/15 04:42:35;;;;;;;44.30;24.70;;;;;;;3.09;63.73;102120.81;5031384;28;20045;-59
2022/01/15 04:45:03;;;;;;;42.50;24.90;;;;;;;3.05;63.69;102118.28;5030180;28;20046;-60
2022/01/15 04:47:30;;;;;;;43.22;25.02;;;;;;;3.05;63.70;102111.34;5031070;28;20042;-59
2022/01/15 04:49:57;;;;;;;40.08;24.38;;;;;;;3.06;63.67;102119.97;5030909;28;20053;-71
2022/01/15 04:52:23;;;;;;;39.13;23.42;;;;;;;3.05;63.70;102120.88;5030730;28;20064;-59
2022/01/15 04:54:51;;;;;;;42.75;24.73;;;;;;;3.00;63.75;102118.28;5030971;28;20085;-59
2022/01/15 04:57:18;;;;;;;37.08;23.70;;;;;;;2.96;63.72;102108.78;5030681;28;20077;-59
2022/01/15 04:59:44;;;;;;;33.22;22.35;;;;;;;2.97;63.77;102105.34;5030947;28;20049;-59
2022/01/15 05:02:11;;;;;;;39.20;22.45;;;;;;;2.99;63.61;102119.13;5030625;28;20042;-65
2022/01/15 05:04:38;;;;;;;37.03;23.13;;;;;;;3.01;63.57;102112.22;5030160;28;20056;-59
2022/01/15 05:07:09;;;;;;;37.63;22.92;;;;;;;2.96;63.72;102124.34;5030590;28;20045;-61
2022/01/15 05:09:36;;;;;;;35.80;22.80;;;;;;;2.96;63.73;102118.28;5030534;28;20045;-73
2022/01/15 05:12:27;;;;;;;36.33;22.50;;;;;;;2.91;63.73;102116.56;5010346;28;20506;-60
2022/01/15 05:14:50;;;;;;;33.38;22.45;;;;;;;2.81;63.84;102120.06;5011086;28;20050;-59
2022/01/15 05:17:17;;;;;;;34.80;23.08;;;;;;;2.75;63.81;102127.84;5010561;28;20054;-59
2022/01/15 05:19:44;;;;;;;32.28;21.17;;;;;;;2.70;63.61;102135.59;5009927;28;20045;-60
2022/01/15 05:22:10;;;;;;;39.20;23.85;;;;;;;2.65;63.48;102129.56;5010340;28;20046;-60
2022/01/15 05:24:37;;;;;;;36.17;23.98;;;;;;;2.62;63.24;102132.16;5010667;28;20049;-59
2022/01/15 05:27:04;;;;;;;34.85;22.95;;;;;;;2.60;63.15;102131.31;5010469;28;20077;-59
2022/01/15 05:29:31;;;;;;;34.20;21.92;;;;;;;2.59;63.11;102125.25;5010532;28;20038;-72
2022/01/15 05:31:58;;;;;;;34.10;22.20;;;;;;;2.63;62.81;102122.66;5010715;28;20414;-61
2022/01/15 05:34:28;;;;;;;38.22;22.65;;;;;;;2.56;62.89;102119.22;5010736;28;20041;-59
2022/01/15 05:36:55;;;;;;;33.10;21.45;;;;;;;2.53;62.93;102125.25;5009926;28;20108;-64
2022/01/15 05:39:21;;;;;;;33.38;21.30;;;;;;;2.55;62.75;102131.31;5010122;28;20454;-58
2022/01/15 05:41:48;;;;;;;34.92;21.77;;;;;;;2.55;62.70;102133.91;5010298;28;20077;-59
2022/01/15 05:44:15;;;;;;;33.88;21.00;;;;;;;2.53;62.49;102133.03;5009217;28;20050;-59
2022/01/15 05:46:41;;;;;;;35.63;21.15;;;;;;;2.48;62.47;102131.34;5010318;28;20037;-59
2022/01/15 05:49:08;;;;;;;31.25;20.30;;;;;;;2.47;62.42;102134.78;5010346;28;20049;-59
2022/01/15 05:51:34;;;;;;;36.45;19.10;;;;;;;2.47;62.20;102140.81;5010172;28;20507;-62
2022/01/15 05:54:10;;;;;;;32.40;19.73;;;;;;;2.45;62.25;102145.13;5008930;28;20045;-59
2022/01/15 05:56:38;;;;;;;32.22;19.88;;;;;;;2.45;62.07;102145.13;5009684;28;20057;-59
2022/01/15 05:59:06;;;;;;;31.42;20.35;;;;;;;2.48;62.09;102157.25;5010046;28;20073;-58
2022/01/15 06:01:34;;;;;;;32.05;19.83;;;;;;;2.48;61.95;102158.09;5009892;28;20100;-61
2022/01/15 06:04:01;;;;;;;31.58;19.38;;;;;;;2.46;62.16;102165.00;4996276;28;20073;-58
2022/01/15 06:06:28;;;;;;;29.98;20.65;;;;;;;2.49;62.02;102158.94;5009909;28;20107;-59
2022/01/15 06:09:04;;;;;;;35.55;19.92;;;;;;;2.49;62.20;102158.94;5009782;28;20095;-58
2022/01/15 06:11:40;;;;;;;34.95;20.77;;;;;;;2.49;62.14;102164.13;5024516;28;20076;-58
2022/01/15 06:14:12;;;;;;;32.75;20.27;;;;;;;2.49;62.03;102174.50;5029402;28;20041;-59
2022/01/15 06:16:38;;;;;;;29.70;19.20;;;;;;;2.44;62.04;102172.78;5029398;28;20465;-61
2022/01/15 06:19:05;;;;;;;31.98;20.00;;;;;;;2.41;62.09;102172.78;5029416;28;20087;-59
2022/01/15 06:21:32;;;;;;;33.15;21.45;;;;;;;2.39;62.22;102181.41;5029667;28;20437;-58
2022/01/15 06:23:58;;;;;;;31.52;19.90;;;;;;;2.38;62.19;102188.31;5029506;28;20513;-59
2022/01/15 06:26:25;;;;;;;30.92;20.23;;;;;;;2.35;62.05;102180.53;5029324;28;20045;-59
2022/01/15 06:28:52;;;;;;;35.70;21.15;;;;;;;2.40;61.78;102190.88;5028241;28;20050;-59
2022/01/15 06:31:18;;;;;;;33.00;21.75;;;;;;;2.42;61.83;102187.44;5029053;28;20045;-59
2022/01/15 06:33:45;;;;;;;34.58;20.48;;;;;;;2.42;62.07;102186.59;5029415;28;20057;-58
2022/01/15 06:36:12;;;;;;;33.83;21.35;;;;;;;2.41;61.88;102188.31;5028987;28;20390;-59
2022/01/15 06:38:38;;;;;;;33.38;20.25;;;;;;;2.41;61.93;102187.44;5029087;28;20556;-59
2022/01/15 06:41:05;;;;;;;31.50;20.75;;;;;;;2.41;62.14;102190.03;5029015;28;20115;-58
2022/01/15 06:43:32;;;;;;;33.38;21.42;;;;;;;2.45;62.12;102199.53;5028335;28;20041;-58
2022/01/15 06:45:58;;;;;;;33.90;21.45;;;;;;;2.44;62.08;102203.84;5029038;28;20152;-59
2022/01/15 06:48:26;;;;;;;33.50;20.00;;;;;;;2.43;62.35;102196.94;5029103;28;20041;-59
2022/01/15 06:50:53;;;;;;;35.60;21.05;;;;;;;2.43;62.32;102194.34;5029189;28;20052;-59
2022/01/15 06:53:20;;;;;;;37.72;22.58;;;;;;;2.41;62.20;102192.63;5028792;28;20046;-59
2022/01/15 06:55:49;;;;;;;36.83;22.02;;;;;;;2.30;62.57;102208.16;5028748;28;20050;-59
2022/01/15 06:58:16;;;;;;;34.72;20.48;;;;;;;2.25;62.38;102209.88;5028689;28;20073;-59
2022/01/15 07:00:43;;;;;;;33.90;21.35;;;;;;;2.20;62.28;102211.59;5028361;28;20398;-59
2022/01/15 07:03:10;;;;;;;33.28;20.75;;;;;;;2.20;62.10;102209.03;5028983;28;20045;-58
2022/01/15 07:05:36;;;;;;;36.83;21.15;;;;;;;2.21;62.02;102213.31;5028716;28;20049;-69
2022/01/15 07:08:04;;;;;;;33.97;22.02;;;;;;;2.24;61.64;102209.00;5028518;28;20049;-59
2022/01/15 07:10:30;;;;;;;62.55;35.17;;;;;;;2.26;61.67;102206.41;5028335;28;20053;-59
2022/01/15 07:12:57;;;;;;;101.00;55.80;;;;;;;2.28;61.50;102212.47;5028968;28;20393;-59
2022/01/15 07:15:24;;;;;;;66.13;39.38;;;;;;;2.29;61.36;102209.88;5027388;28;20103;-59
2022/01/15 07:17:51;;;;;;;43.22;27.33;;;;;;;2.32;61.35;102215.94;5028799;28;20061;-59
2022/01/15 07:20:19;;;;;;;39.55;23.17;;;;;;;2.37;61.33;102222.84;5028712;28;20048;-59
2022/01/15 07:22:46;;;;;;;43.53;25.35;;;;;;;2.46;60.92;102219.41;5028886;28;20045;-59
2022/01/15 07:25:13;;;;;;;38.25;23.85;;;;;;;2.52;60.85;102214.22;5028799;28;20068;-59
2022/01/15 07:27:40;;;;;;;37.05;23.38;;;;;;;2.67;60.32;102215.97;5028208;28;20107;-60
2022/01/15 07:30:08;;;;;;;36.00;23.45;;;;;;;2.84;59.92;102221.13;5027669;28;20498;-59
2022/01/15 07:32:35;;;;;;;34.15;21.70;;;;;;;3.03;59.48;102223.72;5027106;28;20045;-59
2022/01/15 07:35:03;;;;;;;39.25;22.00;;;;;;;3.16;58.93;102232.34;5027466;28;20042;-59
2022/01/15 07:37:31;;;;;;;32.00;20.08;;;;;;;3.28;58.64;102237.53;5027217;28;20095;-61
2022/01/15 07:39:59;;;;;;;37.25;20.88;;;;;;;3.30;58.83;102242.69;5027661;28;20052;-61
2022/01/15 07:42:28;;;;;;;36.20;22.50;;;;;;;3.35;58.52;102243.56;5028098;28;20045;-61
2022/01/15 07:44:54;;;;;;;41.90;22.95;;;;;;;3.42;58.42;102253.06;5011234;28;20100;-60
2022/01/15 07:47:21;;;;;;;36.33;22.75;;;;;;;3.50;58.54;102247.84;5009634;28;20057;-62
2022/01/15 07:49:48;;;;;;;37.22;22.33;;;;;;;3.55;58.52;102253.88;5023519;28;20053;-60
2022/01/15 07:52:14;;;;;;;39.75;23.83;;;;;;;3.60;58.60;102258.19;5012238;28;20045;-61
2022/01/15 07:54:41;;;;;;;38.45;24.25;;;;;;;3.68;58.54;102247.81;5021261;28;20457;-61
2022/01/15 07:57:08;;;;;;;45.33;26.60;;;;;;;3.68;58.71;102247.81;5012473;28;20064;-63
2022/01/15 07:59:35;;;;;;;49.00;24.30;;;;;;;3.69;58.89;102252.09;5019813;28;20058;-61
2022/01/15 08:02:01;;;;;;;47.80;24.98;;;;;;;3.71;59.26;102249.53;5027800;28;20038;-62
2022/01/15 08:04:28;;;;;;;41.65;21.85;;;;;;;3.78;59.33;102248.59;5027108;28;20041;-61
2022/01/15 08:06:55;;;;;;;40.17;22.60;;;;;;;3.79;59.19;102246.91;5027966;28;20119;-61
2022/01/15 08:09:21;;;;;;;39.38;24.67;;;;;;;3.80;59.49;102246.03;5030594;28;20049;-60
2022/01/15 08:11:48;;;;;;;45.20;27.02;;;;;;;3.83;59.56;102251.19;5031177;28;20050;-63
2022/01/15 08:14:15;;;;;;;46.58;28.85;;;;;;;3.96;59.47;102246.81;5031812;28;20403;-62
2022/01/15 08:16:41;;;;;;;45.75;28.10;;;;;;;4.06;59.45;102257.16;5031881;28;20045;-63
2022/01/15 08:19:08;;;;;;;42.15;26.42;;;;;;;4.21;59.44;102247.53;5031364;28;20092;-64
2022/01/15 08:21:35;;;;;;;36.88;25.95;;;;;;;4.36;59.20;102257.84;5030293;28;20493;-63
2022/01/15 08:24:01;;;;;;;34.60;22.42;;;;;;;4.60;59.08;102270.69;5030937;28;20075;-63
2022/01/15 08:26:28;;;;;;;35.78;24.05;;;;;;;4.83;58.59;102260.97;5031647;28;20045;-62
2022/01/15 08:28:56;;;;;;;37.00;22.98;;;;;;;5.14;57.96;102262.44;5031353;28;20046;-63
2022/01/15 08:31:23;;;;;;;39.97;24.13;;;;;;;5.51;57.30;102264.69;5031429;28;20132;-65
2022/01/15 08:33:50;;;;;;;40.53;23.17;;;;;;;5.83;56.50;102261.72;5031193;28;20050;-63
2022/01/15 08:36:17;;;;;;;33.50;22.70;;;;;;;6.17;55.87;102263.03;5030000;28;20046;-63
2022/01/15 08:38:45;;;;;;;41.58;25.52;;;;;;;6.47;55.05;102266.97;5031475;28;20057;-62
2022/01/15 08:41:22;;;;;;;40.55;24.95;;;;;;;6.73;54.71;102270.94;5030619;28;20045;-62
2022/01/15 08:43:49;;;;;;;38.33;23.35;;;;;;;6.96;54.41;102273.16;5029909;28;20045;-62
2022/01/15 08:46:18;;;;;;;41.20;23.73;;;;;;;7.15;54.01;102270.25;5030952;28;20041;-63
2022/01/15 08:48:45;;;;;;;60.85;38.55;;;;;;;7.35;53.49;102272.47;5031011;28;20489;-65
2022/01/15 08:51:12;;;;;;;40.22;26.15;;;;;;;7.59;53.08;102275.53;5031815;28;20092;-63
2022/01/15 08:53:39;;;;;;;39.15;25.65;;;;;;;7.79;52.84;102269.91;5029970;28;20049;-63
2022/01/15 08:56:06;;;;;;;40.13;27.75;;;;;;;7.93;52.55;102262.63;5030951;28;20049;-63
2022/01/15 08:58:32;;;;;;;45.13;28.70;;;;;;;8.11;52.18;102265.75;5030297;28;20099;-63
2022/01/15 09:00:59;;;;;;;41.08;26.90;;;;;;;8.25;52.05;102263.72;5031109;28;20107;-64
2022/01/15 09:03:26;;;;;;;40.13;26.27;;;;;;;8.38;51.64;102272.13;5030616;28;20057;-64
2022/01/15 09:05:53;;;;;;;40.97;28.42;;;;;;;8.54;51.42;102262.19;5031083;28;20246;-64
2022/01/15 09:08:24;;;;;;;43.75;27.52;;;;;;;8.69;51.21;102266.22;5030778;28;20628;-63
2022/01/15 09:10:56;;;;;;;41.55;27.90;;;;;;;8.84;50.70;102267.59;5029716;28;20057;-64
2022/01/15 09:13:23;;;;;;;45.25;28.65;;;;;;;8.99;50.48;102256.72;5030335;28;20420;-65
2022/01/15 09:15:50;;;;;;;70.28;44.10;;;;;;;9.10;50.34;102266.94;5030349;28;20049;-65
2022/01/15 09:18:18;;;;;;;69.40;43.72;;;;;;;9.24;49.89;102263.09;5030489;28;20084;-63
2022/01/15 09:20:46;;;;;;;94.25;61.25;;;;;;;9.37;49.52;102261.00;5030417;28;20092;-64
2022/01/15 09:23:12;;;;;;;63.25;40.10;;;;;;;9.51;49.36;102265.84;5031136;28;20047;-64
2022/01/15 09:25:39;;;;;;;68.88;42.45;;;;;;;9.63;48.97;102265.53;5030840;28;20084;-63
2022/01/15 09:30:52;;;;;;;40.75;27.05;;;;;;;9.93;48.39;102271.66;5030282;28;20041;-64
2022/01/15 09:33:19;;;;;;;49.58;32.17;;;;;;;10.06;48.06;102277.38;5029191;28;20073;-63
2022/01/15 09:35:45;;;;;;;153.23;91.53;;;;;;;10.20;47.72;102278.75;5030052;28;20486;-64
2022/01/15 09:38:15;;;;;;;114.57;69.75;;;;;;;10.32;47.39;102278.34;5029921;28;20457;-64
2022/01/15 09:40:42;;;;;;;64.38;40.00;;;;;;;10.45;47.19;102277.13;5030284;28;20050;-64
2022/01/15 09:43:09;;;;;;;80.18;48.53;;;;;;;10.59;46.81;102281.09;5016230;28;20108;-65
2022/01/15 09:45:40;;;;;;;61.20;38.58;;;;;;;10.70;46.65;102284.19;5028449;28;20103;-64
2022/01/15 09:48:07;;;;;;;64.65;37.53;;;;;;;10.83;46.25;102271.53;5029807;28;20490;-64
2022/01/15 09:50:37;;;;;;;55.50;37.92;;;;;;;10.98;45.97;102267.53;5030134;28;20046;-64
2022/01/15 09:53:05;;;;;;;47.45;31.05;;;;;;;11.11;46.07;102268.84;5029754;28;20841;-65
2022/01/15 09:55:31;;;;;;;47.55;31.70;;;;;;;11.24;45.69;102269.25;5016374;28;20038;-66
2022/01/15 09:57:58;;;;;;;47.45;31.83;;;;;;;11.36;45.49;102272.38;5029904;28;20390;-66
2022/01/15 10:00:27;;;;;;;46.25;30.63;;;;;;;11.45;45.10;102274.66;5028870;28;20096;-64
2022/01/15 10:02:59;;;;;;;45.83;29.38;;;;;;;11.60;44.69;102283.78;5028952;28;20049;-65
2022/01/15 10:05:25;;;;;;;52.72;34.63;;;;;;;11.71;44.35;102275.53;5029475;28;20520;-65
2022/01/15 10:07:58;;;;;;;68.25;43.47;;;;;;;11.82;43.76;102273.34;5029392;28;20490;-65
2022/01/15 10:10:26;;;;;;;38.83;29.73;;;;;;;11.93;43.50;102271.19;5029359;28;20506;-66
2022/01/15 10:12:53;;;;;;;40.72;29.23;;;;;;;12.02;43.30;102266.50;5029785;28;20049;-66
2022/01/15 10:15:21;;;;;;;39.83;29.77;;;;;;;12.13;42.89;102268.72;5029248;28;20084;-66
2022/01/15 10:17:48;;;;;;;42.05;29.75;;;;;;;12.24;42.80;102262.13;5029578;28;20054;-66
2022/01/15 10:20:22;;;;;;;43.15;29.35;;;;;;;12.29;42.62;102268.97;5028482;28;20050;-66
2022/01/15 10:22:51;;;;;;;51.40;34.50;;;;;;;12.37;42.39;102254.59;5029910;28;20390;-66
2022/01/15 10:25:21;;;;;;;65.70;41.65;;;;;;;12.48;42.36;102259.44;5029198;28;20045;-65
2022/01/15 10:27:53;;;;;;;156.07;85.70;;;;;;;12.57;42.11;102247.69;5029126;28;20061;-63
2022/01/15 10:30:27;;;;;;;56.22;38.05;;;;;;;12.63;42.20;102246.56;5027801;28;20494;-63
2022/01/15 10:33:01;;;;;;;56.83;35.22;;;;;;;12.72;41.72;102248.81;5028425;28;20437;-63
2022/01/15 10:35:35;;;;;;;43.67;30.90;;;;;;;12.87;41.49;102255.22;5029146;28;20037;-63
2022/01/15 10:38:05;;;;;;;42.60;30.27;;;;;;;12.96;41.33;102251.34;5023441;28;20099;-63
2022/01/15 10:40:44;;;;;;;36.80;27.80;;;;;;;13.03;41.26;102247.53;5028392;28;20049;-63
2022/01/15 10:43:13;;;;;;;26.10;18.10;;;;;;;13.18;41.14;102243.34;5015692;28;20047;-63
2022/01/15 10:45:57;;;;;;;34.78;22.77;;;;;;;13.49;42.09;102242.03;5028899;28;20077;-62
2022/01/15 10:48:29;;;;;;;30.85;18.73;;;;;;;13.73;42.25;102242.72;5028544;28;20123;-65
2022/01/15 10:51:07;;;;;;;28.38;19.25;;;;;;;13.93;42.80;102243.56;5028688;28;20042;-65
2022/01/15 10:53:41;;;;;;;32.83;21.90;;;;;;;14.09;42.72;102238.44;5027445;28;20037;-64
2022/01/15 10:56:10;;;;;;;32.15;21.35;;;;;;;14.16;43.16;102235.41;5028446;28;20050;-63
2022/01/15 10:58:37;;;;;;;29.38;22.33;;;;;;;14.25;42.87;102233.28;5028212;28;20042;-64
2022/01/15 11:01:05;;;;;;;36.50;22.13;;;;;;;14.29;43.03;102235.69;5028508;28;20107;-64
2022/01/15 11:03:41;;;;;;;31.50;21.63;;;;;;;14.30;43.11;102229.47;5028475;28;20690;-63
2022/01/15 11:06:07;;;;;;;30.83;21.05;;;;;;;14.38;42.92;102229.09;5028537;28;20049;-63
2022/01/15 11:08:39;;;;;;;32.15;20.90;;;;;;;14.47;42.71;102230.44;5028431;28;20095;-63
2022/01/15 11:11:09;;;;;;;27.05;19.65;;;;;;;14.45;42.76;102229.63;5027638;28;20073;-66
2022/01/15 11:13:41;;;;;;;31.95;21.38;;;;;;;14.55;42.54;102233.56;5028464;28;20041;-63
2022/01/15 11:16:13;;;;;;;34.15;21.23;;;;;;;14.52;42.95;102228.41;5028623;28;20049;-63
2022/01/15 11:18:54;;;;;;;32.20;21.27;;;;;;;14.52;43.18;102223.13;5028336;28;20052;-62
2022/01/15 11:21:22;;;;;;;32.30;22.15;;;;;;;14.57;43.73;102215.00;5028307;28;20057;-62
2022/01/15 11:23:50;;;;;;;30.92;21.50;;;;;;;14.57;44.23;102217.63;5028079;28;20091;-62
2022/01/15 11:26:27;;;;;;;28.70;21.38;;;;;;;14.54;44.52;102216.84;5027527;28;20047;-62
2022/01/15 11:28:55;;;;;;;35.42;23.38;;;;;;;14.51;44.79;102213.50;5027683;28;20045;-62
2022/01/15 11:31:27;;;;;;;39.97;25.45;;;;;;;14.43;44.98;102216.53;5028162;28;20057;-64
2022/01/15 11:33:56;;;;;;;112.90;67.82;;;;;;;13.78;45.01;102213.50;5027928;28;20386;-64
2022/01/15 11:36:35;;;;;;;55.22;38.38;;;;;;;13.36;44.67;102216.19;5028373;28;20046;-65
2022/01/15 11:39:06;;;;;;;43.45;30.55;;;;;;;13.15;44.08;102214.50;5027129;28;20049;-64
2022/01/15 11:41:32;;;;;;;40.30;29.15;;;;;;;12.97;44.00;102209.09;5027689;28;20073;-64
2022/01/15 11:44:00;;;;;;;52.47;36.55;;;;;;;12.80;43.59;102207.22;5029892;28;20049;-64
2022/01/15 11:46:47;;;;;;;42.97;30.38;;;;;;;12.78;43.17;102193.22;5029205;28;20076;-65
2022/01/15 11:49:41;;;;;;;39.30;29.05;;;;;;;12.74;42.90;102192.50;5029021;28;20047;-65
2022/01/15 11:52:18;;;;;;;37.78;29.15;;;;;;;12.69;42.87;102183.94;5020680;28;20486;-62